sensor_id;sensor_type;location;lat;lon;timestamp;temperature;humidity
9666;DHT22;4871;52.004;5.924;2023-02-17T00:00:00;10.3;86.6
9666;DHT22;4871;52.004;5.924;2023-02-17T00:01:01;10.3;86.0
9666;DHT22;4871;52.004;5.924;2023-02-17T00:02:02;10.3;86.6
9666;DHT22;4871;52.004;5.924;2023-02-17T00:03:00;10.3;86.1
9666;DHT22;4871;52.004;5.924;2023-02-17T00:04:00;10.3;86.0
9666;DHT22;4871;52.004;5.924;2023-02-17T00:05:01;10.3;86.3
9666;DHT22;4871;52.004;5.924;2023-02-17T00:06:04;10.3;86.0
9666;DHT22;4871;52.004;5.924;2023-02-17T00:07:00;10.3;85.5
9666;DHT22;4871;52.004;5.924;2023-02-17T00:08:00;10.3;85.5
9666;DHT22;4871;52.004;5.924;2023-02-17T00:09:01;10.3;85.4
9666;DHT22;4871;52.004;5.924;2023-02-17T00:10:00;10.3;85.9
9666;DHT22;4871;52.004;5.924;2023-02-17T00:11:01;10.3;85.9
9666;DHT22;4871;52.004;5.924;2023-02-17T00:12:00;10.3;85.4
9666;DHT22;4871;52.004;5.924;2023-02-17T00:13:01;10.3;85.3
9666;DHT22;4871;52.004;5.924;2023-02-17T00:14:00;10.3;85.3
9666;DHT22;4871;52.004;5.924;2023-02-17T00:15:01;10.3;86.1
9666;DHT22;4871;52.004;5.924;2023-02-17T00:16:05;10.3;86.2
9666;DHT22;4871;52.004;5.924;2023-02-17T00:17:01;10.3;85.9
9666;DHT22;4871;52.004;5.924;2023-02-17T00:18:00;10.3;85.5
9666;DHT22;4871;52.004;5.924;2023-02-17T00:19:00;10.3;86.2
9666;DHT22;4871;52.004;5.924;2023-02-17T00:20:00;10.3;85.8
9666;DHT22;4871;52.004;5.924;2023-02-17T00:21:10;10.3;85.8
9666;DHT22;4871;52.004;5.924;2023-02-17T00:22:00;10.3;86.0
9666;DHT22;4871;52.004;5.924;2023-02-17T00:23:00;10.3;86.0
9666;DHT22;4871;52.004;5.924;2023-02-17T00:24:00;10.3;85.8
9666;DHT22;4871;52.004;5.924;2023-02-17T00:25:00;10.3;85.8
9666;DHT22;4871;52.004;5.924;2023-02-17T00:26:03;10.3;85.7
9666;DHT22;4871;52.004;5.924;2023-02-17T00:27:01;10.3;86.2
9666;DHT22;4871;52.004;5.924;2023-02-17T00:28:00;10.3;86.0
9666;DHT22;4871;52.004;5.924;2023-02-17T00:29:00;10.3;85.9
9666;DHT22;4871;52.004;5.924;2023-02-17T00:30:00;10.3;85.9
9666;DHT22;4871;52.004;5.924;2023-02-17T00:31:04;10.3;85.8
9666;DHT22;4871;52.004;5.924;2023-02-17T00:32:00;10.3;85.6
9666;DHT22;4871;52.004;5.924;2023-02-17T00:33:00;10.3;86.2
9666;DHT22;4871;52.004;5.924;2023-02-17T00:34:00;10.3;85.8
9666;DHT22;4871;52.004;5.924;2023-02-17T00:35:00;10.3;86.0
9666;DHT22;4871;52.004;5.924;2023-02-17T00:36:02;10.3;85.8
9666;DHT22;4871;52.004;5.924;2023-02-17T00:37:01;10.3;85.8
9666;DHT22;4871;52.004;5.924;2023-02-17T00:38:00;10.3;86.1
9666;DHT22;4871;52.004;5.924;2023-02-17T00:39:00;10.3;85.8
9666;DHT22;4871;52.004;5.924;2023-02-17T00:40:00;10.3;86.0
9666;DHT22;4871;52.004;5.924;2023-02-17T00:41:02;10.3;85.7
9666;DHT22;4871;52.004;5.924;2023-02-17T00:42:00;10.3;85.6
9666;DHT22;4871;52.004;5.924;2023-02-17T00:43:00;10.3;85.8
9666;DHT22;4871;52.004;5.924;2023-02-17T00:44:00;10.3;85.9
9666;DHT22;4871;52.004;5.924;2023-02-17T00:45:00;10.3;85.7
9666;DHT22;4871;52.004;5.924;2023-02-17T00:46:02;10.3;85.9
9666;DHT22;4871;52.004;5.924;2023-02-17T00:47:00;10.3;86.0
9666;DHT22;4871;52.004;5.924;2023-02-17T00:48:00;10.3;85.8
9666;DHT22;4871;52.004;5.924;2023-02-17T00:49:01;10.3;86.2
9666;DHT22;4871;52.004;5.924;2023-02-17T00:50:00;10.3;85.6
9666;DHT22;4871;52.004;5.924;2023-02-17T00:51:00;10.3;85.9
9666;DHT22;4871;52.004;5.924;2023-02-17T00:52:01;10.3;85.6
9666;DHT22;4871;52.004;5.924;2023-02-17T00:53:02;10.3;85.8
9666;DHT22;4871;52.004;5.924;2023-02-17T00:54:00;10.3;85.7
9666;DHT22;4871;52.004;5.924;2023-02-17T00:55:00;10.3;85.9
9666;DHT22;4871;52.004;5.924;2023-02-17T00:56:00;10.3;85.8
9666;DHT22;4871;52.004;5.924;2023-02-17T00:57:00;10.3;85.9
9666;DHT22;4871;52.004;5.924;2023-02-17T00:58:00;10.3;85.9
9666;DHT22;4871;52.004;5.924;2023-02-17T00:59:00;10.3;85.9
9666;DHT22;4871;52.004;5.924;2023-02-17T01:00:00;10.3;85.7
9666;DHT22;4871;52.004;5.924;2023-02-17T01:01:00;10.3;85.7
9666;DHT22;4871;52.004;5.924;2023-02-17T01:02:00;10.3;85.6
9666;DHT22;4871;52.004;5.924;2023-02-17T01:03:01;10.3;86.0
9666;DHT22;4871;52.004;5.924;2023-02-17T01:04:00;10.3;86.1
9666;DHT22;4871;52.004;5.924;2023-02-17T01:05:01;10.3;86.0
9666;DHT22;4871;52.004;5.924;2023-02-17T01:06:04;10.3;85.9
9666;DHT22;4871;52.004;5.924;2023-02-17T01:07:00;10.3;85.9
9666;DHT22;4871;52.004;5.924;2023-02-17T01:08:00;10.3;85.7
9666;DHT22;4871;52.004;5.924;2023-02-17T01:09:00;10.3;86.1
9666;DHT22;4871;52.004;5.924;2023-02-17T01:10:00;10.3;85.9
9666;DHT22;4871;52.004;5.924;2023-02-17T01:11:01;10.3;85.8
9666;DHT22;4871;52.004;5.924;2023-02-17T01:12:00;10.3;85.8
9666;DHT22;4871;52.004;5.924;2023-02-17T01:13:00;10.3;85.8
9666;DHT22;4871;52.004;5.924;2023-02-17T01:14:03;10.3;85.9
9666;DHT22;4871;52.004;5.924;2023-02-17T01:15:00;10.3;86.1
9666;DHT22;4871;52.004;5.924;2023-02-17T01:16:00;10.3;85.7
9666;DHT22;4871;52.004;5.924;2023-02-17T01:17:00;10.3;86.1
9666;DHT22;4871;52.004;5.924;2023-02-17T01:18:01;10.3;85.7
9666;DHT22;4871;52.004;5.924;2023-02-17T01:19:01;10.3;85.8
9666;DHT22;4871;52.004;5.924;2023-02-17T01:20:00;10.3;85.8
9666;DHT22;4871;52.004;5.924;2023-02-17T01:21:00;10.3;86.0
9666;DHT22;4871;52.004;5.924;2023-02-17T01:22:01;10.3;86.0
9666;DHT22;4871;52.004;5.924;2023-02-17T01:23:00;10.3;86.4
9666;DHT22;4871;52.004;5.924;2023-02-17T01:24:02;10.3;85.8
9666;DHT22;4871;52.004;5.924;2023-02-17T01:25:00;10.3;85.7
9666;DHT22;4871;52.004;5.924;2023-02-17T01:26:00;10.4;85.5
9666;DHT22;4871;52.004;5.924;2023-02-17T01:27:00;10.3;86.1
9666;DHT22;4871;52.004;5.924;2023-02-17T01:28:02;10.4;85.3
9666;DHT22;4871;52.004;5.924;2023-02-17T01:29:00;10.4;85.7
9666;DHT22;4871;52.004;5.924;2023-02-17T01:30:00;10.4;85.5
9666;DHT22;4871;52.004;5.924;2023-02-17T01:31:04;10.3;85.3
9666;DHT22;4871;52.004;5.924;2023-02-17T01:32:00;10.3;85.7
9666;DHT22;4871;52.004;5.924;2023-02-17T01:33:00;10.3;86.2
9666;DHT22;4871;52.004;5.924;2023-02-17T01:34:02;10.3;85.8
9666;DHT22;4871;52.004;5.924;2023-02-17T01:35:00;10.3;85.9
9666;DHT22;4871;52.004;5.924;2023-02-17T01:36:01;10.3;85.9
9666;DHT22;4871;52.004;5.924;2023-02-17T01:37:00;10.3;85.7
9666;DHT22;4871;52.004;5.924;2023-02-17T01:38:01;10.3;86.0
9666;DHT22;4871;52.004;5.924;2023-02-17T01:39:00;10.3;85.6
9666;DHT22;4871;52.004;5.924;2023-02-17T01:40:00;10.3;85.5
9666;DHT22;4871;52.004;5.924;2023-02-17T01:41:00;10.3;85.9
9666;DHT22;4871;52.004;5.924;2023-02-17T01:42:00;10.4;85.9
9666;DHT22;4871;52.004;5.924;2023-02-17T01:43:00;10.3;85.9
9666;DHT22;4871;52.004;5.924;2023-02-17T01:44:07;10.3;85.9
9666;DHT22;4871;52.004;5.924;2023-02-17T01:46:03;10.3;85.6
9666;DHT22;4871;52.004;5.924;2023-02-17T01:47:00;10.3;85.5
9666;DHT22;4871;52.004;5.924;2023-02-17T01:48:05;10.4;85.9
9666;DHT22;4871;52.004;5.924;2023-02-17T01:49:02;10.3;86.1
9666;DHT22;4871;52.004;5.924;2023-02-17T01:50:00;10.3;86.0
9666;DHT22;4871;52.004;5.924;2023-02-17T01:51:02;10.3;86.1
9666;DHT22;4871;52.004;5.924;2023-02-17T01:52:06;10.3;86.1
9666;DHT22;4871;52.004;5.924;2023-02-17T01:53:01;10.3;86.1
9666;DHT22;4871;52.004;5.924;2023-02-17T01:54:03;10.3;86.4
9666;DHT22;4871;52.004;5.924;2023-02-17T01:55:03;10.3;86.2
9666;DHT22;4871;52.004;5.924;2023-02-17T01:56:01;10.3;86.2
9666;DHT22;4871;52.004;5.924;2023-02-17T01:57:00;10.3;86.5
9666;DHT22;4871;52.004;5.924;2023-02-17T01:58:02;10.3;86.6
9666;DHT22;4871;52.004;5.924;2023-02-17T01:59:04;10.3;86.3
9666;DHT22;4871;52.004;5.924;2023-02-17T02:00:00;10.3;86.1
9666;DHT22;4871;52.004;5.924;2023-02-17T02:01:02;10.3;86.5
9666;DHT22;4871;52.004;5.924;2023-02-17T02:02:02;10.3;86.0
9666;DHT22;4871;52.004;5.924;2023-02-17T02:03:02;10.3;85.6
9666;DHT22;4871;52.004;5.924;2023-02-17T02:04:02;10.3;86.2
9666;DHT22;4871;52.004;5.924;2023-02-17T02:05:00;10.3;86.0
9666;DHT22;4871;52.004;5.924;2023-02-17T02:06:03;10.4;85.9
9666;DHT22;4871;52.004;5.924;2023-02-17T02:07:01;10.4;86.1
9666;DHT22;4871;52.004;5.924;2023-02-17T02:08:00;10.4;85.7
9666;DHT22;4871;52.004;5.924;2023-02-17T02:09:03;10.4;86.6
9666;DHT22;4871;52.004;5.924;2023-02-17T02:10:01;10.4;86.1
9666;DHT22;4871;52.004;5.924;2023-02-17T02:11:00;10.3;85.8
9666;DHT22;4871;52.004;5.924;2023-02-17T02:12:00;10.4;85.8
9666;DHT22;4871;52.004;5.924;2023-02-17T02:13:00;10.3;86.1
9666;DHT22;4871;52.004;5.924;2023-02-17T02:14:02;10.3;85.6
9666;DHT22;4871;52.004;5.924;2023-02-17T02:15:02;10.3;86.2
9666;DHT22;4871;52.004;5.924;2023-02-17T02:16:05;10.3;86.1
9666;DHT22;4871;52.004;5.924;2023-02-17T02:17:05;10.4;86.3
9666;DHT22;4871;52.004;5.924;2023-02-17T02:18:10;10.3;86.1
9666;DHT22;4871;52.004;5.924;2023-02-17T02:19:03;10.3;86.1
9666;DHT22;4871;52.004;5.924;2023-02-17T02:20:20;10.4;85.9
9666;DHT22;4871;52.004;5.924;2023-02-17T02:22:17;10.3;86.4
9666;DHT22;4871;52.004;5.924;2023-02-17T02:23:14;10.3;86.4
9666;DHT22;4871;52.004;5.924;2023-02-17T02:24:11;10.3;86.3
9666;DHT22;4871;52.004;5.924;2023-02-17T02:25:09;10.3;86.6
9666;DHT22;4871;52.004;5.924;2023-02-17T02:26:12;10.3;85.2
9666;DHT22;4871;52.004;5.924;2023-02-17T02:27:17;10.3;86.7
9666;DHT22;4871;52.004;5.924;2023-02-17T02:28:09;10.3;86.0
9666;DHT22;4871;52.004;5.924;2023-02-17T02:29:14;10.3;86.5
9666;DHT22;4871;52.004;5.924;2023-02-17T02:31:15;10.3;86.3
9666;DHT22;4871;52.004;5.924;2023-02-17T02:32:18;10.3;86.3
9666;DHT22;4871;52.004;5.924;2023-02-17T02:33:05;10.3;86.3
9666;DHT22;4871;52.004;5.924;2023-02-17T02:34:03;10.3;86.4
9666;DHT22;4871;52.004;5.924;2023-02-17T02:35:04;10.4;85.8
9666;DHT22;4871;52.004;5.924;2023-02-17T02:36:04;10.4;86.1
9666;DHT22;4871;52.004;5.924;2023-02-17T02:37:04;10.4;86.1
9666;DHT22;4871;52.004;5.924;2023-02-17T02:38:05;10.4;86.2
9666;DHT22;4871;52.004;5.924;2023-02-17T02:39:06;10.4;85.7
9666;DHT22;4871;52.004;5.924;2023-02-17T02:40:05;10.3;86.2
9666;DHT22;4871;52.004;5.924;2023-02-17T02:41:03;10.3;86.1
9666;DHT22;4871;52.004;5.924;2023-02-17T02:42:04;10.3;86.6
9666;DHT22;4871;52.004;5.924;2023-02-17T02:43:01;10.3;86.4
9666;DHT22;4871;52.004;5.924;2023-02-17T02:44:02;10.3;86.3
9666;DHT22;4871;52.004;5.924;2023-02-17T02:45:00;10.3;86.6
9666;DHT22;4871;52.004;5.924;2023-02-17T02:46:00;10.3;86.9
9666;DHT22;4871;52.004;5.924;2023-02-17T02:47:04;10.3;86.5
9666;DHT22;4871;52.004;5.924;2023-02-17T02:48:01;10.3;86.4
9666;DHT22;4871;52.004;5.924;2023-02-17T02:49:01;10.3;86.6
9666;DHT22;4871;52.004;5.924;2023-02-17T02:50:00;10.3;86.2
9666;DHT22;4871;52.004;5.924;2023-02-17T02:51:09;10.3;85.9
9666;DHT22;4871;52.004;5.924;2023-02-17T02:52:04;10.4;85.9
9666;DHT22;4871;52.004;5.924;2023-02-17T02:53:16;10.3;86.2
9666;DHT22;4871;52.004;5.924;2023-02-17T02:54:30;10.3;86.5
9666;DHT22;4871;52.004;5.924;2023-02-17T02:55:02;10.3;86.3
9666;DHT22;4871;52.004;5.924;2023-02-17T02:56:04;10.3;86.6
9666;DHT22;4871;52.004;5.924;2023-02-17T02:57:07;10.3;85.9
9666;DHT22;4871;52.004;5.924;2023-02-17T02:58:05;10.3;86.3
9666;DHT22;4871;52.004;5.924;2023-02-17T02:59:06;10.3;86.6
9666;DHT22;4871;52.004;5.924;2023-02-17T03:00:10;10.3;86.4
9666;DHT22;4871;52.004;5.924;2023-02-17T03:01:03;10.3;86.4
9666;DHT22;4871;52.004;5.924;2023-02-17T03:02:06;10.3;86.6
9666;DHT22;4871;52.004;5.924;2023-02-17T03:03:07;10.3;86.3
9666;DHT22;4871;52.004;5.924;2023-02-17T03:04:07;10.3;86.8
9666;DHT22;4871;52.004;5.924;2023-02-17T03:05:06;10.3;86.3
9666;DHT22;4871;52.004;5.924;2023-02-17T03:06:06;10.3;86.1
9666;DHT22;4871;52.004;5.924;2023-02-17T03:07:02;10.3;86.1
9666;DHT22;4871;52.004;5.924;2023-02-17T03:08:03;10.3;86.3
9666;DHT22;4871;52.004;5.924;2023-02-17T03:09:05;10.3;86.3
9666;DHT22;4871;52.004;5.924;2023-02-17T03:10:01;10.3;86.3
9666;DHT22;4871;52.004;5.924;2023-02-17T03:11:01;10.3;86.2
9666;DHT22;4871;52.004;5.924;2023-02-17T03:12:00;10.3;86.7
9666;DHT22;4871;52.004;5.924;2023-02-17T03:13:00;10.3;86.2
9666;DHT22;4871;52.004;5.924;2023-02-17T03:14:04;10.3;86.4
9666;DHT22;4871;52.004;5.924;2023-02-17T03:15:03;10.3;86.0
9666;DHT22;4871;52.004;5.924;2023-02-17T03:16:00;10.3;86.4
9666;DHT22;4871;52.004;5.924;2023-02-17T03:17:00;10.3;86.3
9666;DHT22;4871;52.004;5.924;2023-02-17T03:18:01;10.3;86.4
9666;DHT22;4871;52.004;5.924;2023-02-17T03:19:00;10.3;86.5
9666;DHT22;4871;52.004;5.924;2023-02-17T03:20:03;10.3;85.8
9666;DHT22;4871;52.004;5.924;2023-02-17T03:21:04;10.3;86.4
9666;DHT22;4871;52.004;5.924;2023-02-17T03:22:06;10.3;86.7
9666;DHT22;4871;52.004;5.924;2023-02-17T03:23:00;10.3;86.7
9666;DHT22;4871;52.004;5.924;2023-02-17T03:24:00;10.3;86.7
9666;DHT22;4871;52.004;5.924;2023-02-17T03:25:01;10.3;86.4
9666;DHT22;4871;52.004;5.924;2023-02-17T03:26:00;10.3;86.5
9666;DHT22;4871;52.004;5.924;2023-02-17T03:27:00;10.3;86.6
9666;DHT22;4871;52.004;5.924;2023-02-17T03:28:00;10.3;86.2
9666;DHT22;4871;52.004;5.924;2023-02-17T03:29:00;10.3;86.2
9666;DHT22;4871;52.004;5.924;2023-02-17T03:30:01;10.3;86.4
9666;DHT22;4871;52.004;5.924;2023-02-17T03:31:00;10.3;85.9
9666;DHT22;4871;52.004;5.924;2023-02-17T03:32:00;10.3;86.0
9666;DHT22;4871;52.004;5.924;2023-02-17T03:33:00;10.3;86.3
9666;DHT22;4871;52.004;5.924;2023-02-17T03:34:01;10.3;86.2
9666;DHT22;4871;52.004;5.924;2023-02-17T03:35:00;10.3;86.2
9666;DHT22;4871;52.004;5.924;2023-02-17T03:36:00;10.3;85.9
9666;DHT22;4871;52.004;5.924;2023-02-17T03:37:00;10.3;86.2
9666;DHT22;4871;52.004;5.924;2023-02-17T03:38:00;10.3;86.0
9666;DHT22;4871;52.004;5.924;2023-02-17T03:39:00;10.2;86.6
9666;DHT22;4871;52.004;5.924;2023-02-17T03:40:00;10.2;86.2
9666;DHT22;4871;52.004;5.924;2023-02-17T03:41:00;10.2;86.6
9666;DHT22;4871;52.004;5.924;2023-02-17T03:42:01;10.2;86.8
9666;DHT22;4871;52.004;5.924;2023-02-17T03:43:00;10.2;86.5
9666;DHT22;4871;52.004;5.924;2023-02-17T03:44:00;10.2;86.3
9666;DHT22;4871;52.004;5.924;2023-02-17T03:45:00;10.2;86.9
9666;DHT22;4871;52.004;5.924;2023-02-17T03:46:01;10.2;86.4
9666;DHT22;4871;52.004;5.924;2023-02-17T03:47:00;10.2;86.7
9666;DHT22;4871;52.004;5.924;2023-02-17T03:48:01;10.2;85.9
9666;DHT22;4871;52.004;5.924;2023-02-17T03:49:00;10.2;86.5
9666;DHT22;4871;52.004;5.924;2023-02-17T03:50:00;10.2;86.5
9666;DHT22;4871;52.004;5.924;2023-02-17T03:51:08;10.2;86.4
9666;DHT22;4871;52.004;5.924;2023-02-17T03:52:00;10.2;86.4
9666;DHT22;4871;52.004;5.924;2023-02-17T03:53:00;10.2;86.0
9666;DHT22;4871;52.004;5.924;2023-02-17T03:54:00;10.3;86.2
9666;DHT22;4871;52.004;5.924;2023-02-17T03:55:00;10.3;85.7
9666;DHT22;4871;52.004;5.924;2023-02-17T03:56:00;10.2;86.4
9666;DHT22;4871;52.004;5.924;2023-02-17T03:57:00;10.2;86.6
9666;DHT22;4871;52.004;5.924;2023-02-17T03:58:00;10.2;86.3
9666;DHT22;4871;52.004;5.924;2023-02-17T03:59:00;10.2;86.0
9666;DHT22;4871;52.004;5.924;2023-02-17T04:00:00;10.2;86.4
9666;DHT22;4871;52.004;5.924;2023-02-17T04:01:00;10.3;86.2
9666;DHT22;4871;52.004;5.924;2023-02-17T04:02:00;10.2;85.9
9666;DHT22;4871;52.004;5.924;2023-02-17T04:03:00;10.2;86.7
9666;DHT22;4871;52.004;5.924;2023-02-17T04:04:00;10.2;86.4
9666;DHT22;4871;52.004;5.924;2023-02-17T04:05:00;10.2;86.3
9666;DHT22;4871;52.004;5.924;2023-02-17T04:06:01;10.2;86.2
9666;DHT22;4871;52.004;5.924;2023-02-17T04:07:00;10.2;86.3
9666;DHT22;4871;52.004;5.924;2023-02-17T04:08:00;10.2;86.1
9666;DHT22;4871;52.004;5.924;2023-02-17T04:09:00;10.2;86.1
9666;DHT22;4871;52.004;5.924;2023-02-17T04:10:00;10.2;86.2
9666;DHT22;4871;52.004;5.924;2023-02-17T04:11:02;10.2;86.2
9666;DHT22;4871;52.004;5.924;2023-02-17T04:12:00;10.2;86.4
9666;DHT22;4871;52.004;5.924;2023-02-17T04:13:00;10.2;86.2
9666;DHT22;4871;52.004;5.924;2023-02-17T04:14:00;10.2;86.3
9666;DHT22;4871;52.004;5.924;2023-02-17T04:15:00;10.2;86.9
9666;DHT22;4871;52.004;5.924;2023-02-17T04:16:05;10.2;86.0
9666;DHT22;4871;52.004;5.924;2023-02-17T04:17:00;10.2;86.1
9666;DHT22;4871;52.004;5.924;2023-02-17T04:18:01;10.2;86.5
9666;DHT22;4871;52.004;5.924;2023-02-17T04:19:00;10.2;86.5
9666;DHT22;4871;52.004;5.924;2023-02-17T04:20:01;10.2;86.0
9666;DHT22;4871;52.004;5.924;2023-02-17T04:21:00;10.2;86.0
9666;DHT22;4871;52.004;5.924;2023-02-17T04:22:00;10.2;86.3
9666;DHT22;4871;52.004;5.924;2023-02-17T04:23:00;10.2;86.1
9666;DHT22;4871;52.004;5.924;2023-02-17T04:24:01;10.2;86.3
9666;DHT22;4871;52.004;5.924;2023-02-17T04:25:00;10.2;86.4
9666;DHT22;4871;52.004;5.924;2023-02-17T04:26:01;10.2;86.3
9666;DHT22;4871;52.004;5.924;2023-02-17T04:27:00;10.2;87.0
9666;DHT22;4871;52.004;5.924;2023-02-17T04:28:01;10.1;86.9
9666;DHT22;4871;52.004;5.924;2023-02-17T04:29:02;10.2;86.9
9666;DHT22;4871;52.004;5.924;2023-02-17T04:30:00;10.2;86.3
9666;DHT22;4871;52.004;5.924;2023-02-17T04:31:00;10.2;86.3
9666;DHT22;4871;52.004;5.924;2023-02-17T04:32:00;10.2;86.0
9666;DHT22;4871;52.004;5.924;2023-02-17T04:33:00;10.2;86.1
9666;DHT22;4871;52.004;5.924;2023-02-17T04:34:00;10.2;86.4
9666;DHT22;4871;52.004;5.924;2023-02-17T04:35:00;10.2;86.4
9666;DHT22;4871;52.004;5.924;2023-02-17T04:36:00;10.2;86.6
9666;DHT22;4871;52.004;5.924;2023-02-17T04:37:00;10.2;86.6
9666;DHT22;4871;52.004;5.924;2023-02-17T04:38:01;10.2;86.7
9666;DHT22;4871;52.004;5.924;2023-02-17T04:39:00;10.2;86.5
9666;DHT22;4871;52.004;5.924;2023-02-17T04:40:00;10.2;86.2
9666;DHT22;4871;52.004;5.924;2023-02-17T04:41:00;10.2;86.2
9666;DHT22;4871;52.004;5.924;2023-02-17T04:42:00;10.2;86.5
9666;DHT22;4871;52.004;5.924;2023-02-17T04:43:00;10.2;86.8
9666;DHT22;4871;52.004;5.924;2023-02-17T04:44:00;10.2;86.6
9666;DHT22;4871;52.004;5.924;2023-02-17T04:45:00;10.2;86.5
9666;DHT22;4871;52.004;5.924;2023-02-17T04:46:00;10.2;86.5
9666;DHT22;4871;52.004;5.924;2023-02-17T04:47:00;10.2;86.2
9666;DHT22;4871;52.004;5.924;2023-02-17T04:48:01;10.2;85.8
9666;DHT22;4871;52.004;5.924;2023-02-17T04:49:01;10.3;86.0
9666;DHT22;4871;52.004;5.924;2023-02-17T04:50:01;10.2;86.0
9666;DHT22;4871;52.004;5.924;2023-02-17T04:51:01;10.2;86.4
9666;DHT22;4871;52.004;5.924;2023-02-17T04:52:00;10.2;86.3
9666;DHT22;4871;52.004;5.924;2023-02-17T04:53:00;10.2;86.4
9666;DHT22;4871;52.004;5.924;2023-02-17T04:54:00;10.2;86.2
9666;DHT22;4871;52.004;5.924;2023-02-17T04:55:00;10.2;86.5
9666;DHT22;4871;52.004;5.924;2023-02-17T04:56:00;10.2;86.1
9666;DHT22;4871;52.004;5.924;2023-02-17T04:57:01;10.2;86.3
9666;DHT22;4871;52.004;5.924;2023-02-17T04:58:00;10.2;86.4
9666;DHT22;4871;52.004;5.924;2023-02-17T04:59:00;10.2;86.5
9666;DHT22;4871;52.004;5.924;2023-02-17T05:00:00;10.2;86.2
9666;DHT22;4871;52.004;5.924;2023-02-17T05:01:00;10.2;86.4
9666;DHT22;4871;52.004;5.924;2023-02-17T05:02:00;10.2;86.3
9666;DHT22;4871;52.004;5.924;2023-02-17T05:03:00;10.2;86.2
9666;DHT22;4871;52.004;5.924;2023-02-17T05:04:00;10.3;86.0
9666;DHT22;4871;52.004;5.924;2023-02-17T05:05:02;10.2;86.4
9666;DHT22;4871;52.004;5.924;2023-02-17T05:06:00;10.2;86.5
9666;DHT22;4871;52.004;5.924;2023-02-17T05:07:00;10.2;86.6
9666;DHT22;4871;52.004;5.924;2023-02-17T05:08:00;10.2;86.5
9666;DHT22;4871;52.004;5.924;2023-02-17T05:09:00;10.2;86.7
9666;DHT22;4871;52.004;5.924;2023-02-17T05:10:00;10.2;86.9
9666;DHT22;4871;52.004;5.924;2023-02-17T05:11:01;10.2;86.6
9666;DHT22;4871;52.004;5.924;2023-02-17T05:12:02;10.2;86.1
9666;DHT22;4871;52.004;5.924;2023-02-17T05:13:01;10.2;86.5
9666;DHT22;4871;52.004;5.924;2023-02-17T05:14:01;10.2;86.3
9666;DHT22;4871;52.004;5.924;2023-02-17T05:15:02;10.2;86.1
9666;DHT22;4871;52.004;5.924;2023-02-17T05:16:00;10.2;86.8
9666;DHT22;4871;52.004;5.924;2023-02-17T05:17:01;10.2;87.0
9666;DHT22;4871;52.004;5.924;2023-02-17T05:18:00;10.2;86.7
9666;DHT22;4871;52.004;5.924;2023-02-17T05:19:00;10.2;86.8
9666;DHT22;4871;52.004;5.924;2023-02-17T05:20:00;10.2;87.3
9666;DHT22;4871;52.004;5.924;2023-02-17T05:21:01;10.2;86.9
9666;DHT22;4871;52.004;5.924;2023-02-17T05:22:00;10.2;87.1
9666;DHT22;4871;52.004;5.924;2023-02-17T05:23:01;10.2;86.5
9666;DHT22;4871;52.004;5.924;2023-02-17T05:24:01;10.2;86.9
9666;DHT22;4871;52.004;5.924;2023-02-17T05:25:00;10.2;87.0
9666;DHT22;4871;52.004;5.924;2023-02-17T05:26:00;10.2;86.8
9666;DHT22;4871;52.004;5.924;2023-02-17T05:27:00;10.2;86.5
9666;DHT22;4871;52.004;5.924;2023-02-17T05:28:00;10.2;87.0
9666;DHT22;4871;52.004;5.924;2023-02-17T05:29:00;10.2;86.7
9666;DHT22;4871;52.004;5.924;2023-02-17T05:30:00;10.2;86.6
9666;DHT22;4871;52.004;5.924;2023-02-17T05:31:01;10.2;86.8
9666;DHT22;4871;52.004;5.924;2023-02-17T05:32:00;10.2;87.0
9666;DHT22;4871;52.004;5.924;2023-02-17T05:33:00;10.2;86.9
9666;DHT22;4871;52.004;5.924;2023-02-17T05:34:00;10.2;87.0
9666;DHT22;4871;52.004;5.924;2023-02-17T05:35:00;10.2;86.5
9666;DHT22;4871;52.004;5.924;2023-02-17T05:36:01;10.2;86.8
9666;DHT22;4871;52.004;5.924;2023-02-17T05:37:02;10.2;86.7
9666;DHT22;4871;52.004;5.924;2023-02-17T05:38:00;10.2;86.5
9666;DHT22;4871;52.004;5.924;2023-02-17T05:39:01;10.2;86.5
9666;DHT22;4871;52.004;5.924;2023-02-17T05:40:00;10.2;86.9
9666;DHT22;4871;52.004;5.924;2023-02-17T05:41:01;10.2;87.0
9666;DHT22;4871;52.004;5.924;2023-02-17T05:42:00;10.2;86.5
9666;DHT22;4871;52.004;5.924;2023-02-17T05:43:00;10.2;86.9
9666;DHT22;4871;52.004;5.924;2023-02-17T05:44:00;10.2;86.8
9666;DHT22;4871;52.004;5.924;2023-02-17T05:45:01;10.2;86.9
9666;DHT22;4871;52.004;5.924;2023-02-17T05:46:01;10.2;86.8
9666;DHT22;4871;52.004;5.924;2023-02-17T05:47:01;10.3;86.6
9666;DHT22;4871;52.004;5.924;2023-02-17T05:48:00;10.2;86.3
9666;DHT22;4871;52.004;5.924;2023-02-17T05:49:00;10.3;86.3
9666;DHT22;4871;52.004;5.924;2023-02-17T05:50:00;10.2;86.4
9666;DHT22;4871;52.004;5.924;2023-02-17T05:51:00;10.2;86.4
9666;DHT22;4871;52.004;5.924;2023-02-17T05:52:00;10.2;86.6
9666;DHT22;4871;52.004;5.924;2023-02-17T05:53:00;10.2;86.8
9666;DHT22;4871;52.004;5.924;2023-02-17T05:54:00;10.2;86.6
9666;DHT22;4871;52.004;5.924;2023-02-17T05:55:02;10.2;86.7
9666;DHT22;4871;52.004;5.924;2023-02-17T05:56:00;10.2;87.0
9666;DHT22;4871;52.004;5.924;2023-02-17T05:57:00;10.2;87.3
9666;DHT22;4871;52.004;5.924;2023-02-17T05:58:00;10.2;86.9
9666;DHT22;4871;52.004;5.924;2023-02-17T05:59:01;10.2;86.9
9666;DHT22;4871;52.004;5.924;2023-02-17T06:00:01;10.2;86.7
9666;DHT22;4871;52.004;5.924;2023-02-17T06:01:00;10.2;86.5
9666;DHT22;4871;52.004;5.924;2023-02-17T06:02:00;10.2;86.6
9666;DHT22;4871;52.004;5.924;2023-02-17T06:03:00;10.2;86.8
9666;DHT22;4871;52.004;5.924;2023-02-17T06:04:00;10.2;86.8
9666;DHT22;4871;52.004;5.924;2023-02-17T06:05:01;10.2;86.7
9666;DHT22;4871;52.004;5.924;2023-02-17T06:06:00;10.2;86.4
9666;DHT22;4871;52.004;5.924;2023-02-17T06:07:01;10.2;86.8
9666;DHT22;4871;52.004;5.924;2023-02-17T06:08:00;10.2;86.8
9666;DHT22;4871;52.004;5.924;2023-02-17T06:09:02;10.2;86.7
9666;DHT22;4871;52.004;5.924;2023-02-17T06:10:00;10.2;87.0
9666;DHT22;4871;52.004;5.924;2023-02-17T06:11:00;10.2;86.8
9666;DHT22;4871;52.004;5.924;2023-02-17T06:12:00;10.2;86.8
9666;DHT22;4871;52.004;5.924;2023-02-17T06:13:00;10.2;86.3
9666;DHT22;4871;52.004;5.924;2023-02-17T06:14:00;10.2;87.1
9666;DHT22;4871;52.004;5.924;2023-02-17T06:15:01;10.2;86.8
9666;DHT22;4871;52.004;5.924;2023-02-17T06:16:00;10.2;87.3
9666;DHT22;4871;52.004;5.924;2023-02-17T06:17:03;10.2;87.2
9666;DHT22;4871;52.004;5.924;2023-02-17T06:18:00;10.2;87.0
9666;DHT22;4871;52.004;5.924;2023-02-17T06:19:01;10.2;87.2
9666;DHT22;4871;52.004;5.924;2023-02-17T06:20:00;10.2;86.6
9666;DHT22;4871;52.004;5.924;2023-02-17T06:21:00;10.2;86.9
9666;DHT22;4871;52.004;5.924;2023-02-17T06:22:00;10.2;86.7
9666;DHT22;4871;52.004;5.924;2023-02-17T06:23:00;10.2;86.8
9666;DHT22;4871;52.004;5.924;2023-02-17T06:24:00;10.2;87.2
9666;DHT22;4871;52.004;5.924;2023-02-17T06:25:00;10.2;86.9
9666;DHT22;4871;52.004;5.924;2023-02-17T06:26:00;10.2;87.4
9666;DHT22;4871;52.004;5.924;2023-02-17T06:27:01;10.2;87.2
9666;DHT22;4871;52.004;5.924;2023-02-17T06:28:00;10.2;87.2
9666;DHT22;4871;52.004;5.924;2023-02-17T06:29:00;10.2;87.5
9666;DHT22;4871;52.004;5.924;2023-02-17T06:30:00;10.2;87.3
9666;DHT22;4871;52.004;5.924;2023-02-17T06:31:00;10.2;87.0
9666;DHT22;4871;52.004;5.924;2023-02-17T06:32:00;10.2;86.8
9666;DHT22;4871;52.004;5.924;2023-02-17T06:33:01;10.2;87.2
9666;DHT22;4871;52.004;5.924;2023-02-17T06:34:00;10.2;87.0
9666;DHT22;4871;52.004;5.924;2023-02-17T06:35:02;10.2;87.2
9666;DHT22;4871;52.004;5.924;2023-02-17T06:36:00;10.2;87.2
9666;DHT22;4871;52.004;5.924;2023-02-17T06:37:00;10.2;86.8
9666;DHT22;4871;52.004;5.924;2023-02-17T06:38:00;10.2;87.2
9666;DHT22;4871;52.004;5.924;2023-02-17T06:39:01;10.2;86.8
9666;DHT22;4871;52.004;5.924;2023-02-17T06:40:00;10.2;86.9
9666;DHT22;4871;52.004;5.924;2023-02-17T06:41:01;10.2;87.6
9666;DHT22;4871;52.004;5.924;2023-02-17T06:42:00;10.2;87.9
9666;DHT22;4871;52.004;5.924;2023-02-17T06:43:01;10.2;87.4
9666;DHT22;4871;52.004;5.924;2023-02-17T06:44:00;10.2;87.5
9666;DHT22;4871;52.004;5.924;2023-02-17T06:45:05;10.2;87.4
9666;DHT22;4871;52.004;5.924;2023-02-17T06:46:00;10.2;87.1
9666;DHT22;4871;52.004;5.924;2023-02-17T06:47:01;10.2;87.3